sensor_id;sensor_type;location;lat;lon;timestamp;P1;durP1;ratioP1;P2;durP2;ratioP2
28481;SDS011;15703;49.588;6.260;2023-06-22T00:01:44;9.73;;;8.82;;
28481;SDS011;15703;49.588;6.260;2023-06-22T00:04:06;10.38;;;9.07;;
28481;SDS011;15703;49.588;6.260;2023-06-22T00:06:32;11.77;;;9.07;;
28481;SDS011;15703;49.588;6.260;2023-06-22T00:09:41;10.48;;;9.40;;
28481;SDS011;15703;49.588;6.260;2023-06-22T00:12:07;11.30;;;9.43;;
28481;SDS011;15703;49.588;6.260;2023-06-22T00:14:30;12.30;;;10.43;;
28481;SDS011;15703;49.588;6.260;2023-06-22T00:16:52;12.43;;;9.90;;
28481;SDS011;15703;49.588;6.260;2023-06-22T00:19:22;12.00;;;10.70;;
28481;SDS011;15703;49.588;6.260;2023-06-22T00:21:45;12.55;;;11.43;;
28481;SDS011;15703;49.588;6.260;2023-06-22T00:24:11;12.13;;;10.52;;
28481;SDS011;15703;49.588;6.260;2023-06-22T00:26:59;12.35;;;11.18;;
28481;SDS011;15703;49.588;6.260;2023-06-22T00:33:20;12.75;;;11.55;;
28481;SDS011;15703;49.588;6.260;2023-06-22T00:35:46;13.68;;;12.40;;
28481;SDS011;15703;49.588;6.260;2023-06-22T00:38:42;14.07;;;12.13;;
28481;SDS011;15703;49.588;6.260;2023-06-22T01:00:48;15.00;;;12.38;;
28481;SDS011;15703;49.588;6.260;2023-06-22T01:18:16;16.30;;;14.80;;
28481;SDS011;15703;49.588;6.260;2023-06-22T01:25:53;16.38;;;14.88;;
28481;SDS011;15703;49.588;6.260;2023-06-22T01:34:11;17.40;;;15.75;;
28481;SDS011;15703;49.588;6.260;2023-06-22T01:36:54;17.05;;;15.60;;
28481;SDS011;15703;49.588;6.260;2023-06-22T01:53:03;18.65;;;16.83;;
28481;SDS011;15703;49.588;6.260;2023-06-22T02:21:00;22.60;;;20.30;;
28481;SDS011;15703;49.588;6.260;2023-06-22T02:24:30;21.88;;;19.67;;
28481;SDS011;15703;49.588;6.260;2023-06-22T02:42:23;22.65;;;20.45;;
28481;SDS011;15703;49.588;6.260;2023-06-22T03:00:58;23.73;;;21.42;;
28481;SDS011;15703;49.588;6.260;2023-06-22T03:19:06;25.17;;;22.58;;
28481;SDS011;15703;49.588;6.260;2023-06-22T03:52:39;25.52;;;23.02;;
28481;SDS011;15703;49.588;6.260;2023-06-22T04:03:12;24.60;;;22.10;;
28481;SDS011;15703;49.588;6.260;2023-06-22T04:10:23;24.08;;;21.77;;
28481;SDS011;15703;49.588;6.260;2023-06-22T04:13:21;25.98;;;23.48;;
28481;SDS011;15703;49.588;6.260;2023-06-22T04:31:45;23.08;;;20.83;;
28481;SDS011;15703;49.588;6.260;2023-06-22T04:34:43;21.90;;;19.67;;
28481;SDS011;15703;49.588;6.260;2023-06-22T04:37:20;19.10;;;17.25;;
28481;SDS011;15703;49.588;6.260;2023-06-22T04:39:44;18.58;;;16.85;;
28481;SDS011;15703;49.588;6.260;2023-06-22T04:42:07;19.52;;;16.05;;
28481;SDS011;15703;49.588;6.260;2023-06-22T04:44:29;20.85;;;15.00;;
28481;SDS011;15703;49.588;6.260;2023-06-22T04:46:56;16.35;;;14.50;;
28481;SDS011;15703;49.588;6.260;2023-06-22T04:49:23;17.17;;;14.10;;
28481;SDS011;15703;49.588;6.260;2023-06-22T04:51:54;14.70;;;13.20;;
28481;SDS011;15703;49.588;6.260;2023-06-22T04:54:16;15.25;;;12.30;;
28481;SDS011;15703;49.588;6.260;2023-06-22T04:56:42;12.85;;;11.32;;
28481;SDS011;15703;49.588;6.260;2023-06-22T04:59:07;13.20;;;11.25;;
28481;SDS011;15703;49.588;6.260;2023-06-22T05:01:53;13.70;;;12.40;;
28481;SDS011;15703;49.588;6.260;2023-06-22T05:04:15;12.23;;;10.85;;
28481;SDS011;15703;49.588;6.260;2023-06-22T05:06:38;11.98;;;10.88;;
28481;SDS011;15703;49.588;6.260;2023-06-22T05:09:01;11.35;;;9.93;;
28481;SDS011;15703;49.588;6.260;2023-06-22T05:11:25;11.05;;;9.32;;
28481;SDS011;15703;49.588;6.260;2023-06-22T05:13:47;10.85;;;9.75;;
28481;SDS011;15703;49.588;6.260;2023-06-22T05:16:10;10.50;;;9.18;;
28481;SDS011;15703;49.588;6.260;2023-06-22T05:18:32;9.43;;;8.40;;
28481;SDS011;15703;49.588;6.260;2023-06-22T05:20:55;14.48;;;9.25;;
28481;SDS011;15703;49.588;6.260;2023-06-22T05:23:18;10.27;;;8.90;;
28481;SDS011;15703;49.588;6.260;2023-06-22T05:25:40;10.10;;;8.45;;
28481;SDS011;15703;49.588;6.260;2023-06-22T05:28:03;10.18;;;8.93;;
28481;SDS011;15703;49.588;6.260;2023-06-22T05:30:32;11.32;;;8.88;;
28481;SDS011;15703;49.588;6.260;2023-06-22T05:32:54;10.98;;;9.90;;
28481;SDS011;15703;49.588;6.260;2023-06-22T05:35:16;11.45;;;8.82;;
28481;SDS011;15703;49.588;6.260;2023-06-22T05:37:39;10.93;;;9.85;;
28481;SDS011;15703;49.588;6.260;2023-06-22T05:40:01;11.68;;;9.80;;
28481;SDS011;15703;49.588;6.260;2023-06-22T05:42:28;11.38;;;9.68;;
28481;SDS011;15703;49.588;6.260;2023-06-22T05:44:51;12.50;;;10.32;;
28481;SDS011;15703;49.588;6.260;2023-06-22T05:47:14;10.88;;;9.60;;
28481;SDS011;15703;49.588;6.260;2023-06-22T05:49:36;9.52;;;8.63;;
28481;SDS011;15703;49.588;6.260;2023-06-22T05:51:59;11.45;;;9.05;;
28481;SDS011;15703;49.588;6.260;2023-06-22T05:54:22;10.18;;;9.18;;
28481;SDS011;15703;49.588;6.260;2023-06-22T05:56:44;11.38;;;9.57;;
28481;SDS011;15703;49.588;6.260;2023-06-22T05:59:06;10.07;;;9.07;;
28481;SDS011;15703;49.588;6.260;2023-06-22T06:01:29;11.35;;;10.25;;
28481;SDS011;15703;49.588;6.260;2023-06-22T06:03:56;17.40;;;10.02;;
28481;SDS011;15703;49.588;6.260;2023-06-22T06:06:18;11.38;;;9.95;;
28481;SDS011;15703;49.588;6.260;2023-06-22T06:08:50;11.55;;;9.10;;
28481;SDS011;15703;49.588;6.260;2023-06-22T06:11:12;10.40;;;9.02;;
28481;SDS011;15703;49.588;6.260;2023-06-22T06:13:34;10.82;;;9.73;;
28481;SDS011;15703;49.588;6.260;2023-06-22T06:15:57;11.15;;;9.48;;
28481;SDS011;15703;49.588;6.260;2023-06-22T06:18:21;10.23;;;9.25;;
28481;SDS011;15703;49.588;6.260;2023-06-22T06:20:43;10.57;;;9.13;;
28481;SDS011;15703;49.588;6.260;2023-06-22T06:23:05;10.77;;;9.25;;
28481;SDS011;15703;49.588;6.260;2023-06-22T06:25:27;10.93;;;9.63;;
28481;SDS011;15703;49.588;6.260;2023-06-22T06:27:50;10.27;;;9.38;;
28481;SDS011;15703;49.588;6.260;2023-06-22T06:30:16;10.73;;;9.73;;
28481;SDS011;15703;49.588;6.260;2023-06-22T06:32:38;10.25;;;9.23;;
28481;SDS011;15703;49.588;6.260;2023-06-22T06:35:01;10.57;;;8.70;;
28481;SDS011;15703;49.588;6.260;2023-06-22T06:37:23;10.68;;;9.35;;
28481;SDS011;15703;49.588;6.260;2023-06-22T06:39:46;10.40;;;8.98;;
28481;SDS011;15703;49.588;6.260;2023-06-22T06:42:08;10.20;;;9.15;;
28481;SDS011;15703;49.588;6.260;2023-06-22T06:44:32;9.70;;;8.70;;
28481;SDS011;15703;49.588;6.260;2023-06-22T06:46:54;9.15;;;8.35;;
28481;SDS011;15703;49.588;6.260;2023-06-22T06:49:17;9.57;;;8.48;;
28481;SDS011;15703;49.588;6.260;2023-06-22T06:51:39;10.52;;;7.85;;
28481;SDS011;15703;49.588;6.260;2023-06-22T06:54:01;8.93;;;7.53;;
28481;SDS011;15703;49.588;6.260;2023-06-22T06:56:24;11.20;;;8.32;;
28481;SDS011;15703;49.588;6.260;2023-06-22T06:58:49;8.80;;;8.00;;
28481;SDS011;15703;49.588;6.260;2023-06-22T07:01:12;10.27;;;8.52;;
28481;SDS011;15703;49.588;6.260;2023-06-22T07:03:34;9.48;;;7.85;;
28481;SDS011;15703;49.588;6.260;2023-06-22T07:05:56;9.65;;;7.80;;
28481;SDS011;15703;49.588;6.260;2023-06-22T07:08:19;8.73;;;7.82;;
28481;SDS011;15703;49.588;6.260;2023-06-22T07:10:41;8.98;;;8.05;;
28481;SDS011;15703;49.588;6.260;2023-06-22T07:13:03;8.45;;;7.65;;
28481;SDS011;15703;49.588;6.260;2023-06-22T07:15:26;7.70;;;7.00;;
28481;SDS011;15703;49.588;6.260;2023-06-22T07:17:49;8.00;;;6.97;;
28481;SDS011;15703;49.588;6.260;2023-06-22T07:20:11;7.22;;;6.63;;
28481;SDS011;15703;49.588;6.260;2023-06-22T07:22:34;8.45;;;7.43;;
28481;SDS011;15703;49.588;6.260;2023-06-22T07:24:56;7.50;;;6.80;;
28481;SDS011;15703;49.588;6.260;2023-06-22T07:27:18;8.43;;;7.10;;
28481;SDS011;15703;49.588;6.260;2023-06-22T07:29:41;8.23;;;6.95;;
28481;SDS011;15703;49.588;6.260;2023-06-22T07:32:04;7.30;;;6.60;;
28481;SDS011;15703;49.588;6.260;2023-06-22T07:34:26;6.38;;;5.75;;
28481;SDS011;15703;49.588;6.260;2023-06-22T07:36:49;8.80;;;7.15;;
28481;SDS011;15703;49.588;6.260;2023-06-22T07:39:11;7.60;;;6.47;;
28481;SDS011;15703;49.588;6.260;2023-06-22T07:41:34;7.68;;;6.65;;
28481;SDS011;15703;49.588;6.260;2023-06-22T07:43:56;7.72;;;6.88;;
28481;SDS011;15703;49.588;6.260;2023-06-22T07:46:18;9.10;;;7.05;;
28481;SDS011;15703;49.588;6.260;2023-06-22T07:48:41;8.57;;;7.72;;
28481;SDS011;15703;49.588;6.260;2023-06-22T07:51:05;7.53;;;6.85;;
28481;SDS011;15703;49.588;6.260;2023-06-22T07:53:27;7.70;;;6.95;;
28481;SDS011;15703;49.588;6.260;2023-06-22T07:55:50;8.70;;;7.20;;
28481;SDS011;15703;49.588;6.260;2023-06-22T07:58:12;8.45;;;7.18;;
28481;SDS011;15703;49.588;6.260;2023-06-22T08:00:34;8.57;;;7.75;;
28481;SDS011;15703;49.588;6.260;2023-06-22T08:02:57;8.25;;;7.40;;
28481;SDS011;15703;49.588;6.260;2023-06-22T08:05:19;8.32;;;7.53;;
28481;SDS011;15703;49.588;6.260;2023-06-22T08:07:43;8.00;;;7.30;;
28481;SDS011;15703;49.588;6.260;2023-06-22T08:10:12;9.15;;;8.20;;
28481;SDS011;15703;49.588;6.260;2023-06-22T08:12:34;8.75;;;7.85;;
28481;SDS011;15703;49.588;6.260;2023-06-22T08:14:57;9.60;;;8.65;;
28481;SDS011;15703;49.588;6.260;2023-06-22T08:17:19;10.95;;;9.68;;
28481;SDS011;15703;49.588;6.260;2023-06-22T08:19:42;12.27;;;10.77;;
28481;SDS011;15703;49.588;6.260;2023-06-22T08:22:04;11.63;;;10.65;;
28481;SDS011;15703;49.588;6.260;2023-06-22T08:24:29;12.57;;;11.48;;
28481;SDS011;15703;49.588;6.260;2023-06-22T08:26:52;11.90;;;10.70;;
28481;SDS011;15703;49.588;6.260;2023-06-22T08:29:15;11.90;;;10.70;;
28481;SDS011;15703;49.588;6.260;2023-06-22T08:31:37;11.73;;;10.55;;
28481;SDS011;15703;49.588;6.260;2023-06-22T08:34:00;13.52;;;12.23;;
28481;SDS011;15703;49.588;6.260;2023-06-22T08:36:22;14.18;;;12.80;;
28481;SDS011;15703;49.588;6.260;2023-06-22T08:38:45;13.95;;;12.55;;
28481;SDS011;15703;49.588;6.260;2023-06-22T08:41:12;14.13;;;12.70;;
28481;SDS011;15703;49.588;6.260;2023-06-22T08:43:34;14.73;;;13.35;;
28481;SDS011;15703;49.588;6.260;2023-06-22T08:51:05;19.17;;;15.07;;
28481;SDS011;15703;49.588;6.260;2023-06-22T08:54:34;15.93;;;14.20;;
28481;SDS011;15703;49.588;6.260;2023-06-22T08:57:23;15.35;;;13.88;;
28481;SDS011;15703;49.588;6.260;2023-06-22T09:01:03;16.70;;;14.68;;
28481;SDS011;15703;49.588;6.260;2023-06-22T09:03:35;16.88;;;15.18;;
28481;SDS011;15703;49.588;6.260;2023-06-22T09:05:59;16.50;;;14.95;;
28481;SDS011;15703;49.588;6.260;2023-06-22T09:08:21;18.77;;;16.88;;
28481;SDS011;15703;49.588;6.260;2023-06-22T09:10:44;18.33;;;16.52;;
28481;SDS011;15703;49.588;6.260;2023-06-22T09:13:07;18.65;;;16.60;;
28481;SDS011;15703;49.588;6.260;2023-06-22T09:15:29;25.90;;;18.73;;
28481;SDS011;15703;49.588;6.260;2023-06-22T09:18:01;18.92;;;17.00;;
28481;SDS011;15703;49.588;6.260;2023-06-22T09:20:24;21.95;;;19.73;;
28481;SDS011;15703;49.588;6.260;2023-06-22T09:22:47;20.60;;;18.63;;
28481;SDS011;15703;49.588;6.260;2023-06-22T09:25:13;23.08;;;20.55;;
28481;SDS011;15703;49.588;6.260;2023-06-22T09:27:35;20.80;;;18.90;;
28481;SDS011;15703;49.588;6.260;2023-06-22T09:29:58;19.02;;;17.05;;
28481;SDS011;15703;49.588;6.260;2023-06-22T09:32:28;19.70;;;17.85;;
28481;SDS011;15703;49.588;6.260;2023-06-22T09:34:50;22.85;;;20.55;;
28481;SDS011;15703;49.588;6.260;2023-06-22T09:37:14;20.58;;;18.27;;
28481;SDS011;15703;49.588;6.260;2023-06-22T09:39:37;21.13;;;19.00;;
28481;SDS011;15703;49.588;6.260;2023-06-22T09:42:00;19.70;;;17.90;;
28481;SDS011;15703;49.588;6.260;2023-06-22T09:44:23;20.92;;;18.95;;
28481;SDS011;15703;49.588;6.260;2023-06-22T09:46:45;19.88;;;17.73;;
28481;SDS011;15703;49.588;6.260;2023-06-22T09:49:10;21.17;;;19.15;;
28481;SDS011;15703;49.588;6.260;2023-06-22T09:51:33;22.05;;;19.95;;
28481;SDS011;15703;49.588;6.260;2023-06-22T09:53:55;19.88;;;18.20;;
28481;SDS011;15703;49.588;6.260;2023-06-22T09:56:21;20.52;;;18.55;;
28481;SDS011;15703;49.588;6.260;2023-06-22T09:59:53;21.50;;;17.95;;
28481;SDS011;15703;49.588;6.260;2023-06-22T10:02:15;18.23;;;16.58;;
28481;SDS011;15703;49.588;6.260;2023-06-22T10:04:38;17.27;;;15.48;;
28481;SDS011;15703;49.588;6.260;2023-06-22T10:07:02;15.55;;;14.05;;
28481;SDS011;15703;49.588;6.260;2023-06-22T10:09:29;15.40;;;14.07;;
28481;SDS011;15703;49.588;6.260;2023-06-22T10:11:54;14.65;;;13.40;;
28481;SDS011;15703;49.588;6.260;2023-06-22T10:14:20;12.95;;;11.68;;
28481;SDS011;15703;49.588;6.260;2023-06-22T10:16:42;13.95;;;12.48;;
28481;SDS011;15703;49.588;6.260;2023-06-22T10:19:05;13.60;;;12.30;;
28481;SDS011;15703;49.588;6.260;2023-06-22T10:21:30;13.35;;;11.57;;
28481;SDS011;15703;49.588;6.260;2023-06-22T10:23:59;12.65;;;11.40;;
28481;SDS011;15703;49.588;6.260;2023-06-22T10:26:27;12.15;;;11.00;;
28481;SDS011;15703;49.588;6.260;2023-06-22T10:28:50;15.43;;;12.60;;
28481;SDS011;15703;49.588;6.260;2023-06-22T10:31:33;14.63;;;12.85;;
28481;SDS011;15703;49.588;6.260;2023-06-22T10:33:55;13.15;;;12.00;;
28481;SDS011;15703;49.588;6.260;2023-06-22T10:36:18;11.52;;;10.40;;
28481;SDS011;15703;49.588;6.260;2023-06-22T10:38:40;11.45;;;10.27;;
28481;SDS011;15703;49.588;6.260;2023-06-22T10:41:04;11.85;;;10.68;;
28481;SDS011;15703;49.588;6.260;2023-06-22T10:43:29;11.90;;;10.10;;
28481;SDS011;15703;49.588;6.260;2023-06-22T10:45:55;11.68;;;10.50;;
28481;SDS011;15703;49.588;6.260;2023-06-22T10:48:18;12.13;;;10.85;;
28481;SDS011;15703;49.588;6.260;2023-06-22T10:50:40;11.40;;;10.38;;
28481;SDS011;15703;49.588;6.260;2023-06-22T10:53:03;11.43;;;10.32;;
28481;SDS011;15703;49.588;6.260;2023-06-22T10:55:26;12.50;;;10.70;;
28481;SDS011;15703;49.588;6.260;2023-06-22T10:58:07;11.50;;;9.80;;
28481;SDS011;15703;49.588;6.260;2023-06-22T11:00:32;10.77;;;9.77;;
28481;SDS011;15703;49.588;6.260;2023-06-22T11:02:54;12.38;;;9.48;;
28481;SDS011;15703;49.588;6.260;2023-06-22T11:05:17;10.02;;;9.13;;
28481;SDS011;15703;49.588;6.260;2023-06-22T11:07:45;10.38;;;9.40;;
28481;SDS011;15703;49.588;6.260;2023-06-22T11:10:08;10.65;;;9.25;;
28481;SDS011;15703;49.588;6.260;2023-06-22T11:12:30;9.55;;;8.65;;
28481;SDS011;15703;49.588;6.260;2023-06-22T11:14:53;8.88;;;8.05;;
28481;SDS011;15703;49.588;6.260;2023-06-22T11:17:17;10.57;;;8.98;;
28481;SDS011;15703;49.588;6.260;2023-06-22T11:19:44;9.82;;;8.82;;
28481;SDS011;15703;49.588;6.260;2023-06-22T11:22:07;8.98;;;8.07;;
28481;SDS011;15703;49.588;6.260;2023-06-22T11:24:29;9.35;;;8.45;;
28481;SDS011;15703;49.588;6.260;2023-06-22T11:26:51;8.30;;;7.60;;
28481;SDS011;15703;49.588;6.260;2023-06-22T11:29:14;10.45;;;9.38;;
28481;SDS011;15703;49.588;6.260;2023-06-22T11:31:52;8.93;;;8.07;;
28481;SDS011;15703;49.588;6.260;2023-06-22T11:34:15;9.23;;;8.30;;
28481;SDS011;15703;49.588;6.260;2023-06-22T11:36:37;9.23;;;8.20;;
28481;SDS011;15703;49.588;6.260;2023-06-22T11:38:59;9.02;;;8.23;;
28481;SDS011;15703;49.588;6.260;2023-06-22T11:41:27;8.93;;;7.95;;
28481;SDS011;15703;49.588;6.260;2023-06-22T11:43:49;7.90;;;6.60;;
28481;SDS011;15703;49.588;6.260;2023-06-22T11:46:11;8.55;;;7.65;;
28481;SDS011;15703;49.588;6.260;2023-06-22T11:48:34;8.43;;;7.63;;
28481;SDS011;15703;49.588;6.260;2023-06-22T11:50:57;10.77;;;7.03;;
28481;SDS011;15703;49.588;6.260;2023-06-22T11:53:24;7.88;;;7.13;;
28481;SDS011;15703;49.588;6.260;2023-06-22T11:55:46;8.55;;;7.13;;
28481;SDS011;15703;49.588;6.260;2023-06-22T11:58:09;8.60;;;6.55;;
28481;SDS011;15703;49.588;6.260;2023-06-22T12:00:31;10.15;;;8.00;;
28481;SDS011;15703;49.588;6.260;2023-06-22T12:03:10;9.50;;;7.55;;
28481;SDS011;15703;49.588;6.260;2023-06-22T12:05:33;8.52;;;7.40;;
28481;SDS011;15703;49.588;6.260;2023-06-22T12:07:55;11.13;;;8.00;;
28481;SDS011;15703;49.588;6.260;2023-06-22T12:10:18;9.80;;;6.90;;
28481;SDS011;15703;49.588;6.260;2023-06-22T12:12:41;8.30;;;6.55;;
28481;SDS011;15703;49.588;6.260;2023-06-22T12:15:04;7.80;;;6.80;;
28481;SDS011;15703;49.588;6.260;2023-06-22T12:17:27;7.68;;;6.90;;
28481;SDS011;15703;49.588;6.260;2023-06-22T12:19:49;8.50;;;6.88;;
28481;SDS011;15703;49.588;6.260;2023-06-22T12:22:11;10.82;;;7.30;;
28481;SDS011;15703;49.588;6.260;2023-06-22T12:24:34;9.35;;;7.32;;
28481;SDS011;15703;49.588;6.260;2023-06-22T12:26:56;7.47;;;6.28;;
28481;SDS011;15703;49.588;6.260;2023-06-22T12:29:18;8.48;;;6.78;;
28481;SDS011;15703;49.588;6.260;2023-06-22T12:31:40;7.68;;;6.78;;
28481;SDS011;15703;49.588;6.260;2023-06-22T12:34:03;9.52;;;6.93;;
28481;SDS011;15703;49.588;6.260;2023-06-22T12:36:25;9.80;;;7.30;;
28481;SDS011;15703;49.588;6.260;2023-06-22T12:38:47;11.32;;;6.70;;
28481;SDS011;15703;49.588;6.260;2023-06-22T12:41:10;7.32;;;6.28;;
28481;SDS011;15703;49.588;6.260;2023-06-22T12:43:32;7.57;;;6.80;;
28481;SDS011;15703;49.588;6.260;2023-06-22T12:45:54;9.40;;;8.00;;
28481;SDS011;15703;49.588;6.260;2023-06-22T12:48:17;10.60;;;7.57;;
28481;SDS011;15703;49.588;6.260;2023-06-22T12:50:40;8.90;;;7.03;;
28481;SDS011;15703;49.588;6.260;2023-06-22T12:53:02;11.25;;;7.95;;
28481;SDS011;15703;49.588;6.260;2023-06-22T12:55:25;9.73;;;7.97;;
28481;SDS011;15703;49.588;6.260;2023-06-22T12:57:48;9.60;;;8.75;;
28481;SDS011;15703;49.588;6.260;2023-06-22T13:00:12;10.18;;;8.73;;
28481;SDS011;15703;49.588;6.260;2023-06-22T13:02:34;10.38;;;8.93;;
28481;SDS011;15703;49.588;6.260;2023-06-22T13:04:56;10.23;;;9.23;;
28481;SDS011;15703;49.588;6.260;2023-06-22T13:07:19;10.90;;;9.90;;
28481;SDS011;15703;49.588;6.260;2023-06-22T13:09:44;8.32;;;6.20;;
28481;SDS011;15703;49.588;6.260;2023-06-22T13:12:14;7.82;;;5.43;;
28481;SDS011;15703;49.588;6.260;2023-06-22T13:14:39;10.40;;;5.78;;
28481;SDS011;15703;49.588;6.260;2023-06-22T13:17:01;12.38;;;6.50;;
28481;SDS011;15703;49.588;6.260;2023-06-22T13:19:23;11.75;;;6.38;;
28481;SDS011;15703;49.588;6.260;2023-06-22T13:21:47;8.25;;;6.07;;
28481;SDS011;15703;49.588;6.260;2023-06-22T13:24:09;10.35;;;5.90;;
28481;SDS011;15703;49.588;6.260;2023-06-22T13:26:32;7.22;;;6.30;;
28481;SDS011;15703;49.588;6.260;2023-06-22T13:28:54;9.23;;;6.25;;
28481;SDS011;15703;49.588;6.260;2023-06-22T13:31:17;10.05;;;6.00;;
28481;SDS011;15703;49.588;6.260;2023-06-22T13:33:39;8.23;;;5.78;;
28481;SDS011;15703;49.588;6.260;2023-06-22T13:36:07;7.35;;;4.50;;
28481;SDS011;15703;49.588;6.260;2023-06-22T13:38:44;7.70;;;4.70;;
28481;SDS011;15703;49.588;6.260;2023-06-22T13:41:08;6.82;;;4.53;;
28481;SDS011;15703;49.588;6.260;2023-06-22T13:43:33;5.25;;;4.10;;
28481;SDS011;15703;49.588;6.260;2023-06-22T13:45:59;6.47;;;3.50;;
28481;SDS011;15703;49.588;6.260;2023-06-22T13:48:59;7.28;;;4.45;;
28481;SDS011;15703;49.588;6.260;2023-06-22T13:51:22;7.50;;;4.05;;
28481;SDS011;15703;49.588;6.260;2023-06-22T13:53:48;7.80;;;3.78;;
28481;SDS011;15703;49.588;6.260;2023-06-22T13:56:14;6.75;;;4.80;;
28481;SDS011;15703;49.588;6.260;2023-06-22T13:58:37;7.93;;;4.72;;
28481;SDS011;15703;49.588;6.260;2023-06-22T14:01:38;8.93;;;5.07;;
28481;SDS011;15703;49.588;6.260;2023-06-22T14:04:01;7.95;;;4.43;;
28481;SDS011;15703;49.588;6.260;2023-06-22T14:06:34;8.00;;;4.38;;
28481;SDS011;15703;49.588;6.260;2023-06-22T14:08:57;7.82;;;4.03;;
28481;SDS011;15703;49.588;6.260;2023-06-22T14:11:22;5.65;;;3.88;;
28481;SDS011;15703;49.588;6.260;2023-06-22T14:13:45;6.65;;;4.10;;
28481;SDS011;15703;49.588;6.260;2023-06-22T14:16:10;8.38;;;3.72;;
28481;SDS011;15703;49.588;6.260;2023-06-22T14:18:33;8.63;;;4.10;;
28481;SDS011;15703;49.588;6.260;2023-06-22T14:20:55;5.85;;;3.63;;
28481;SDS011;15703;49.588;6.260;2023-06-22T14:23:18;8.57;;;3.78;;
28481;SDS011;15703;49.588;6.260;2023-06-22T14:25:41;11.85;;;3.97;;
28481;SDS011;15703;49.588;6.260;2023-06-22T14:28:03;7.70;;;3.30;;
28481;SDS011;15703;49.588;6.260;2023-06-22T14:30:26;5.88;;;3.25;;
28481;SDS011;15703;49.588;6.260;2023-06-22T14:32:48;6.32;;;3.28;;
28481;SDS011;15703;49.588;6.260;2023-06-22T14:35:11;10.90;;;3.40;;
28481;SDS011;15703;49.588;6.260;2023-06-22T14:37:33;7.15;;;3.60;;
28481;SDS011;15703;49.588;6.260;2023-06-22T14:39:56;6.00;;;3.25;;
28481;SDS011;15703;49.588;6.260;2023-06-22T14:42:18;5.32;;;2.78;;
28481;SDS011;15703;49.588;6.260;2023-06-22T14:44:40;5.50;;;2.95;;
28481;SDS011;15703;49.588;6.260;2023-06-22T14:47:04;3.92;;;2.90;;
28481;SDS011;15703;49.588;6.260;2023-06-22T14:49:26;7.85;;;2.63;;
28481;SDS011;15703;49.588;6.260;2023-06-22T14:51:49;7.85;;;2.25;;
28481;SDS011;15703;49.588;6.260;2023-06-22T14:54:11;4.82;;;2.53;;
28481;SDS011;15703;49.588;6.260;2023-06-22T14:56:34;6.10;;;2.20;;
28481;SDS011;15703;49.588;6.260;2023-06-22T14:58:56;7.07;;;2.00;;
28481;SDS011;15703;49.588;6.260;2023-06-22T15:01:18;3.42;;;2.13;;
28481;SDS011;15703;49.588;6.260;2023-06-22T15:03:41;3.63;;;1.60;;
28481;SDS011;15703;49.588;6.260;2023-06-22T15:06:04;3.08;;;1.10;;
28481;SDS011;15703;49.588;6.260;2023-06-22T15:08:26;1.95;;;0.70;;
28481;SDS011;15703;49.588;6.260;2023-06-22T15:10:48;2.10;;;1.05;;
28481;SDS011;15703;49.588;6.260;2023-06-22T15:13:11;2.85;;;0.70;;
28481;SDS011;15703;49.588;6.260;2023-06-22T15:15:34;3.83;;;0.70;;
28481;SDS011;15703;49.588;6.260;2023-06-22T15:17:56;0.88;;;0.70;;
28481;SDS011;15703;49.588;6.260;2023-06-22T15:20:18;2.08;;;0.50;;
28481;SDS011;15703;49.588;6.260;2023-06-22T15:22:41;3.88;;;0.47;;
28481;SDS011;15703;49.588;6.260;2023-06-22T15:25:03;1.13;;;0.60;;
28481;SDS011;15703;49.588;6.260;2023-06-22T15:27:26;1.45;;;0.70;;
28481;SDS011;15703;49.588;6.260;2023-06-22T15:29:48;1.13;;;0.60;;
28481;SDS011;15703;49.588;6.260;2023-06-22T15:32:11;4.78;;;0.70;;
28481;SDS011;15703;49.588;6.260;2023-06-22T15:34:33;2.50;;;0.60;;
28481;SDS011;15703;49.588;6.260;2023-06-22T15:36:55;3.30;;;0.47;;
28481;SDS011;15703;49.588;6.260;2023-06-22T15:39:18;5.00;;;0.70;;
28481;SDS011;15703;49.588;6.260;2023-06-22T15:41:40;1.50;;;0.50;;
28481;SDS011;15703;49.588;6.260;2023-06-22T15:44:03;10.82;;;1.02;;
28481;SDS011;15703;49.588;6.260;2023-06-22T15:46:25;2.33;;;0.40;;
28481;SDS011;15703;49.588;6.260;2023-06-22T15:48:48;1.70;;;0.60;;
28481;SDS011;15703;49.588;6.260;2023-06-22T15:51:12;4.70;;;1.20;;
28481;SDS011;15703;49.588;6.260;2023-06-22T15:53:35;1.38;;;0.50;;
28481;SDS011;15703;49.588;6.260;2023-06-22T15:55:57;3.47;;;0.60;;
28481;SDS011;15703;49.588;6.260;2023-06-22T15:58:20;1.40;;;0.50;;
28481;SDS011;15703;49.588;6.260;2023-06-22T16:00:42;0.85;;;0.63;;
28481;SDS011;15703;49.588;6.260;2023-06-22T16:03:06;1.58;;;0.50;;
28481;SDS011;15703;49.588;6.260;2023-06-22T16:05:30;1.00;;;0.50;;
28481;SDS011;15703;49.588;6.260;2023-06-22T16:07:54;1.60;;;0.68;;
28481;SDS011;15703;49.588;6.260;2023-06-22T16:10:17;1.25;;;0.70;;
28481;SDS011;15703;49.588;6.260;2023-06-22T16:12:43;1.10;;;0.60;;
28481;SDS011;15703;49.588;6.260;2023-06-22T16:15:08;1.63;;;0.70;;
28481;SDS011;15703;49.588;6.260;2023-06-22T16:17:34;3.20;;;0.90;;
28481;SDS011;15703;49.588;6.260;2023-06-22T16:19:59;0.70;;;0.70;;
28481;SDS011;15703;49.588;6.260;2023-06-22T16:22:22;2.15;;;1.00;;
28481;SDS011;15703;49.588;6.260;2023-06-22T16:24:45;3.22;;;0.90;;
28481;SDS011;15703;49.588;6.260;2023-06-22T16:27:12;2.55;;;1.00;;
28481;SDS011;15703;49.588;6.260;2023-06-22T16:29:39;3.38;;;1.15;;
28481;SDS011;15703;49.588;6.260;2023-06-22T16:32:06;1.33;;;1.05;;
28481;SDS011;15703;49.588;6.260;2023-06-22T16:34:29;1.02;;;1.02;;
28481;SDS011;15703;49.588;6.260;2023-06-22T16:37:13;2.55;;;0.98;;
28481;SDS011;15703;49.588;6.260;2023-06-22T16:39:36;0.85;;;0.85;;
28481;SDS011;15703;49.588;6.260;2023-06-22T16:45:38;0.70;;;0.70;;
28481;SDS011;15703;49.588;6.260;2023-06-22T16:48:01;2.45;;;0.70;;
28481;SDS011;15703;49.588;6.260;2023-06-22T17:04:54;0.40;;;0.40;;
28481;SDS011;15703;49.588;6.260;2023-06-22T17:07:20;0.82;;;0.50;;
28481;SDS011;15703;49.588;6.260;2023-06-22T17:16:39;1.38;;;0.68;;
28481;SDS011;15703;49.588;6.260;2023-06-22T17:19:04;0.50;;;0.50;;
28481;SDS011;15703;49.588;6.260;2023-06-22T17:21:31;0.95;;;0.60;;
28481;SDS011;15703;49.588;6.260;2023-06-22T17:24:02;1.67;;;0.80;;
28481;SDS011;15703;49.588;6.260;2023-06-22T17:26:25;1.33;;;0.70;;
28481;SDS011;15703;49.588;6.260;2023-06-22T17:29:32;1.17;;;1.00;;
28481;SDS011;15703;49.588;6.260;2023-06-22T17:32:06;1.13;;;1.02;;
28481;SDS011;15703;49.588;6.260;2023-06-22T17:34:29;1.23;;;1.08;;
28481;SDS011;15703;49.588;6.260;2023-06-22T17:37:19;3.38;;;1.25;;
28481;SDS011;15703;49.588;6.260;2023-06-22T17:43:45;2.15;;;1.30;;
28481;SDS011;15703;49.588;6.260;2023-06-22T17:46:08;2.17;;;1.38;;
28481;SDS011;15703;49.588;6.260;2023-06-22T17:49:16;1.45;;;1.08;;
28481;SDS011;15703;49.588;6.260;2023-06-22T17:55:26;1.35;;;0.70;;
28481;SDS011;15703;49.588;6.260;2023-06-22T17:57:54;4.97;;;0.80;;
28481;SDS011;15703;49.588;6.260;2023-06-22T18:00:18;2.20;;;1.00;;
28481;SDS011;15703;49.588;6.260;2023-06-22T18:02:58;2.72;;;1.17;;
28481;SDS011;15703;49.588;6.260;2023-06-22T18:05:59;1.60;;;1.50;;
28481;SDS011;15703;49.588;6.260;2023-06-22T18:08:28;1.73;;;1.63;;
28481;SDS011;15703;49.588;6.260;2023-06-22T18:14:46;1.23;;;1.20;;
28481;SDS011;15703;49.588;6.260;2023-06-22T18:21:20;2.38;;;1.73;;
28481;SDS011;15703;49.588;6.260;2023-06-22T18:34:19;2.05;;;1.90;;
28481;SDS011;15703;49.588;6.260;2023-06-22T18:37:23;2.30;;;2.10;;
28481;SDS011;15703;49.588;6.260;2023-06-22T18:40:28;1.85;;;1.75;;
28481;SDS011;15703;49.588;6.260;2023-06-22T18:43:03;1.90;;;1.80;;
28481;SDS011;15703;49.588;6.260;2023-06-22T18:45:40;1.90;;;1.70;;